PWSweather.com
Personal Weather Stations
Station Observations
KAZTUCSO57
Countryside Manor, Tucson, AZ 85742

Countryside ManorTucson, AZ 85742

Lat: 32.3692, Lon: -111.066

Elevation: 2307

Station Type: Davis VP Pro+ 6163

http://frogville.us

Latest ConditionsUpdated 10:10:01 PM MST Thursday, Jun 22, 2017
Currently Today's Max Today's Min Today's Average
Temperature 96.0°F35.6°C 113.1°F45.1°C 82.5°F28.1°C 99.7°F37.6°C
Dew Point 60.5°F15.8°C 60.5°F15.8°C 39.0°F3.9°C 50.1°F10.1°C
Winds 4.6 mph W7.4 kmh W 5.8 mph WNW9.3 kmh WNW - 1.6 mph 2.6 kmh
Wind Gusts 6.9 mph11.1 kmh 11.5 mph18.5 kmh - -
Humidity 31% 39% 10% 20%
Pressure 29.59 in1002.0 mb 29.61 in1002.7 mb 29.50 in999.0 mb -
Hour Temp Dew Point Humidity Winds Wind Gusts Pressure Precip Precip Rate Daily Precip Total
10:10 PM 96.0°F35.6°C 60.5°F15.8°C 31% 4.6 mph W7.4 kmh W 6.9 mph11.1 kmh 29.59 in1002.0 mb - 0.00 in0.0 mm 0.00 in0.0 mm
10:00 PM 96.4°F35.8°C 59.9°F15.5°C 30% 3.5 mph W5.6 kmh W 8.1 mph13.0 kmh 29.58 in1001.7 mb - 0.00 in0.0 mm 0.00 in0.0 mm
09:50 PM 96.8°F36.0°C 60.3°F15.7°C 30% 3.5 mph W5.6 kmh W 4.6 mph7.4 kmh 29.58 in1001.7 mb - 0.00 in0.0 mm 0.00 in0.0 mm
09:40 PM 97.2°F36.2°C 57.6°F14.2°C 27% 3.5 mph WSW5.6 kmh WSW 3.5 mph5.6 kmh 29.58 in1001.7 mb - 0.00 in0.0 mm 0.00 in0.0 mm
09:30 PM 97.4°F36.3°C 50.9°F10.5°C 21% 2.3 mph W3.7 kmh W 3.5 mph5.6 kmh 29.57 in1001.4 mb - 0.00 in0.0 mm 0.00 in0.0 mm
09:20 PM 98.0°F36.7°C 42.4°F5.8°C 15% 2.3 mph SW3.7 kmh SW 3.5 mph5.6 kmh 29.57 in1001.4 mb - 0.00 in0.0 mm 0.00 in0.0 mm
09:10 PM 98.6°F37.0°C 41.2°F5.1°C 14% 1.2 mph W1.9 kmh W 2.3 mph3.7 kmh 29.56 in1001.0 mb - 0.00 in0.0 mm 0.00 in0.0 mm
09:00 PM 99.0°F37.2°C 41.5°F5.3°C 14% 1.2 mph WNW1.9 kmh WNW 3.5 mph5.6 kmh 29.55 in1000.7 mb - 0.00 in0.0 mm 0.00 in0.0 mm
08:50 PM 99.6°F37.6°C 42.0°F5.6°C 14% Calm Calm 2.3 mph3.7 kmh 29.55 in1000.7 mb - 0.00 in0.0 mm 0.00 in0.0 mm
08:40 PM 100.2°F37.9°C 40.5°F4.7°C 13% Calm Calm 1.2 mph1.9 kmh 29.55 in1000.7 mb - 0.00 in0.0 mm 0.00 in0.0 mm
08:30 PM 100.7°F38.2°C 40.9°F4.9°C 13% Calm Calm 2.3 mph3.7 kmh 29.54 in1000.3 mb - 0.00 in0.0 mm 0.00 in0.0 mm
08:20 PM 101.3°F38.5°C 41.3°F5.2°C 13% Calm Calm 2.3 mph3.7 kmh 29.54 in1000.3 mb - 0.00 in0.0 mm 0.00 in0.0 mm
08:10 PM 101.8°F38.8°C 41.7°F5.4°C 13% Calm Calm 2.3 mph3.7 kmh 29.54 in1000.3 mb - 0.00 in0.0 mm 0.00 in0.0 mm
08:00 PM 102.3°F39.1°C 42.1°F5.6°C 13% 1.2 mph WNW1.9 kmh WNW 2.3 mph3.7 kmh 29.53 in1000.0 mb - 0.00 in0.0 mm 0.00 in0.0 mm
07:50 PM 102.8°F39.3°C 42.5°F5.8°C 13% 1.2 mph W1.9 kmh W 2.3 mph3.7 kmh 29.53 in1000.0 mb - 0.00 in0.0 mm 0.00 in0.0 mm
07:40 PM 103.3°F39.6°C 42.9°F6.1°C 13% 1.2 mph WNW1.9 kmh WNW 2.3 mph3.7 kmh 29.53 in1000.0 mb - 0.00 in0.0 mm 0.00 in0.0 mm
07:30 PM 103.8°F39.9°C 43.3°F6.3°C 13% 1.2 mph NW1.9 kmh NW 1.2 mph1.9 kmh 29.52 in999.7 mb - 0.00 in0.0 mm 0.00 in0.0 mm
07:20 PM 104.2°F40.1°C 43.6°F6.4°C 13% 2.3 mph N3.7 kmh N 2.3 mph3.7 kmh 29.52 in999.7 mb - 0.00 in0.0 mm 0.00 in0.0 mm
07:10 PM 104.7°F40.4°C 44.0°F6.7°C 13% 1.2 mph N1.9 kmh N 2.3 mph3.7 kmh 29.51 in999.3 mb - 0.00 in0.0 mm 0.00 in0.0 mm
07:00 PM 105.1°F40.6°C 44.3°F6.8°C 13% 1.2 mph WNW1.9 kmh WNW 2.3 mph3.7 kmh 29.51 in999.3 mb - 0.00 in0.0 mm 0.00 in0.0 mm
06:50 PM 105.5°F40.8°C 42.5°F5.8°C 12% 2.3 mph NW3.7 kmh NW 5.8 mph9.3 kmh 29.51 in999.3 mb - 0.00 in0.0 mm 0.00 in0.0 mm
06:40 PM 105.9°F41.1°C 40.6°F4.8°C 11% 2.3 mph N3.7 kmh N 3.5 mph5.6 kmh 29.51 in999.3 mb - 0.00 in0.0 mm 0.00 in0.0 mm
06:30 PM 106.3°F41.3°C 40.9°F4.9°C 11% 3.5 mph W5.6 kmh W 6.9 mph11.1 kmh 29.51 in999.3 mb - 0.00 in0.0 mm 0.00 in0.0 mm
06:20 PM 106.6°F41.4°C 41.1°F5.1°C 11% 1.2 mph WNW1.9 kmh WNW 5.8 mph9.3 kmh 29.51 in999.3 mb - 0.00 in0.0 mm 0.00 in0.0 mm
06:10 PM 107.1°F41.7°C 39.0°F3.9°C 10% 2.3 mph W3.7 kmh W 3.5 mph5.6 kmh 29.51 in999.3 mb - 0.00 in0.0 mm 0.00 in0.0 mm
06:00 PM 107.5°F41.9°C 41.8°F5.4°C 11% 2.3 mph NW3.7 kmh NW 3.5 mph5.6 kmh 29.51 in999.3 mb - 0.00 in0.0 mm 0.00 in0.0 mm
05:50 PM 107.7°F42.1°C 41.9°F5.5°C 11% 2.3 mph WNW3.7 kmh WNW 3.5 mph5.6 kmh 29.51 in999.3 mb - 0.00 in0.0 mm 0.00 in0.0 mm
05:40 PM 108.1°F42.3°C 42.3°F5.7°C 11% 3.5 mph WSW5.6 kmh WSW 8.1 mph13.0 kmh 29.50 in999.0 mb - 0.00 in0.0 mm 0.00 in0.0 mm
05:30 PM 108.4°F42.4°C 44.7°F7.1°C 12% 4.6 mph WSW7.4 kmh WSW 6.9 mph11.1 kmh 29.50 in999.0 mb - 0.00 in0.0 mm 0.00 in0.0 mm
05:20 PM 108.6°F42.6°C 44.9°F7.2°C 12% 2.3 mph WSW3.7 kmh WSW 4.6 mph7.4 kmh 29.50 in999.0 mb - 0.00 in0.0 mm 0.00 in0.0 mm
05:10 PM 109.1°F42.8°C 45.3°F7.4°C 12% 2.3 mph WSW3.7 kmh WSW 5.8 mph9.3 kmh 29.50 in999.0 mb - 0.00 in0.0 mm 0.00 in0.0 mm
05:00 PM 109.5°F43.1°C 43.3°F6.3°C 11% 3.5 mph W5.6 kmh W 8.1 mph13.0 kmh 29.50 in999.0 mb - 0.00 in0.0 mm 0.00 in0.0 mm
04:50 PM 109.6°F43.1°C 43.4°F6.3°C 11% 2.3 mph W3.7 kmh W 4.6 mph7.4 kmh 29.50 in999.0 mb - 0.00 in0.0 mm 0.00 in0.0 mm
04:40 PM 109.9°F43.3°C 43.6°F6.4°C 11% 5.8 mph W9.3 kmh W 8.1 mph13.0 kmh 29.50 in999.0 mb - 0.00 in0.0 mm 0.00 in0.0 mm
04:30 PM 110.5°F43.6°C 46.4°F8.0°C 12% 4.6 mph WSW7.4 kmh WSW 11.5 mph18.5 kmh 29.51 in999.3 mb - 0.00 in0.0 mm 0.00 in0.0 mm
04:20 PM 110.6°F43.7°C 46.4°F8.0°C 12% 4.6 mph WSW7.4 kmh WSW 4.6 mph7.4 kmh 29.51 in999.3 mb - 0.00 in0.0 mm 0.00 in0.0 mm
04:10 PM 110.9°F43.8°C 46.7°F8.2°C 12% 4.6 mph W7.4 kmh W 5.8 mph9.3 kmh 29.51 in999.3 mb - 0.00 in0.0 mm 0.00 in0.0 mm
04:00 PM 111.6°F44.2°C 47.2°F8.4°C 12% 2.3 mph W3.7 kmh W 5.8 mph9.3 kmh 29.51 in999.3 mb - 0.00 in0.0 mm 0.00 in0.0 mm
03:50 PM 111.9°F44.4°C 45.1°F7.3°C 11% 3.5 mph WNW5.6 kmh WNW 8.1 mph13.0 kmh 29.52 in999.7 mb - 0.00 in0.0 mm 0.00 in0.0 mm
03:40 PM 112.0°F44.4°C 45.2°F7.3°C 11% 2.3 mph WSW3.7 kmh WSW 5.8 mph9.3 kmh 29.52 in999.7 mb - 0.00 in0.0 mm 0.00 in0.0 mm
03:30 PM 111.9°F44.4°C 47.4°F8.6°C 12% 3.5 mph WNW5.6 kmh WNW 4.6 mph7.4 kmh 29.52 in999.7 mb - 0.00 in0.0 mm 0.00 in0.0 mm
03:20 PM 112.5°F44.7°C 47.9°F8.8°C 12% 3.5 mph SW5.6 kmh SW 3.5 mph5.6 kmh 29.53 in1000.0 mb - 0.00 in0.0 mm 0.00 in0.0 mm
03:10 PM 112.5°F44.7°C 47.9°F8.8°C 12% 2.3 mph W3.7 kmh W 8.1 mph13.0 kmh 29.53 in1000.0 mb - 0.00 in0.0 mm 0.00 in0.0 mm
03:00 PM 112.4°F44.7°C 47.8°F8.8°C 12% 5.8 mph WNW9.3 kmh WNW 11.5 mph18.5 kmh 29.54 in1000.3 mb - 0.00 in0.0 mm 0.00 in0.0 mm
02:50 PM 112.6°F44.8°C 50.1°F10.1°C 13% 3.5 mph W5.6 kmh W 4.6 mph7.4 kmh 29.54 in1000.3 mb - 0.00 in0.0 mm 0.00 in0.0 mm
02:40 PM 112.8°F44.9°C 50.3°F10.2°C 13% 3.5 mph WNW5.6 kmh WNW 9.2 mph14.8 kmh 29.54 in1000.3 mb - 0.00 in0.0 mm 0.00 in0.0 mm
02:30 PM 113.1°F45.1°C 50.5°F10.3°C 13% 3.5 mph WSW5.6 kmh WSW 5.8 mph9.3 kmh 29.54 in1000.3 mb - 0.00 in0.0 mm 0.00 in0.0 mm
02:20 PM 112.7°F44.8°C 52.2°F11.2°C 14% 2.3 mph W3.7 kmh W 5.8 mph9.3 kmh 29.54 in1000.3 mb - 0.00 in0.0 mm 0.00 in0.0 mm
02:10 PM 112.0°F44.4°C 51.7°F10.9°C 14% 3.5 mph NW5.6 kmh NW 4.6 mph7.4 kmh 29.55 in1000.7 mb - 0.00 in0.0 mm 0.00 in0.0 mm
02:00 PM 111.8°F44.3°C 51.5°F10.8°C 14% 2.3 mph W3.7 kmh W 5.8 mph9.3 kmh 29.55 in1000.7 mb - 0.00 in0.0 mm 0.00 in0.0 mm
01:50 PM 111.1°F43.9°C 50.9°F10.5°C 14% 4.6 mph W7.4 kmh W 5.8 mph9.3 kmh 29.55 in1000.7 mb - 0.00 in0.0 mm 0.00 in0.0 mm
01:40 PM 111.2°F44.0°C 52.9°F11.6°C 15% 2.3 mph WNW3.7 kmh WNW 6.9 mph11.1 kmh 29.55 in1000.7 mb - 0.00 in0.0 mm 0.00 in0.0 mm
01:30 PM 111.1°F43.9°C 52.9°F11.6°C 15% 2.3 mph SW3.7 kmh SW 3.5 mph5.6 kmh 29.56 in1001.0 mb - 0.00 in0.0 mm 0.00 in0.0 mm
01:20 PM 110.9°F43.8°C 54.4°F12.4°C 16% 2.3 mph WNW3.7 kmh WNW 6.9 mph11.1 kmh 29.56 in1001.0 mb - 0.00 in0.0 mm 0.00 in0.0 mm
01:10 PM 111.3°F44.1°C 53.0°F11.7°C 15% 1.2 mph S1.9 kmh S 2.3 mph3.7 kmh 29.57 in1001.4 mb - 0.00 in0.0 mm 0.00 in0.0 mm
01:00 PM 110.8°F43.8°C 54.3°F12.4°C 16% 2.3 mph WNW3.7 kmh WNW 3.5 mph5.6 kmh 29.57 in1001.4 mb - 0.00 in0.0 mm 0.00 in0.0 mm
12:50 PM 110.4°F43.6°C 54.1°F12.3°C 16% 1.2 mph W1.9 kmh W 3.5 mph5.6 kmh 29.58 in1001.7 mb - 0.00 in0.0 mm 0.00 in0.0 mm
12:40 PM 110.0°F43.3°C 53.7°F12.1°C 16% 3.5 mph WSW5.6 kmh WSW 10.4 mph16.7 kmh 29.58 in1001.7 mb - 0.00 in0.0 mm 0.00 in0.0 mm
12:30 PM 109.6°F43.1°C 55.1°F12.8°C 17% 3.5 mph N5.6 kmh N 3.5 mph5.6 kmh 29.59 in1002.0 mb - 0.00 in0.0 mm 0.00 in0.0 mm
12:20 PM 109.8°F43.2°C 56.8°F13.8°C 18% 2.3 mph W3.7 kmh W 5.8 mph9.3 kmh 29.59 in1002.0 mb - 0.00 in0.0 mm 0.00 in0.0 mm
12:10 PM 109.7°F43.2°C 56.7°F13.7°C 18% 2.3 mph WSW3.7 kmh WSW 8.1 mph13.0 kmh 29.59 in1002.0 mb - 0.00 in0.0 mm 0.00 in0.0 mm
12:00 PM 109.1°F42.8°C 54.7°F12.6°C 17% 2.3 mph SW3.7 kmh SW 4.6 mph7.4 kmh 29.59 in1002.0 mb - 0.00 in0.0 mm 0.00 in0.0 mm
11:50 AM 109.5°F43.1°C 51.6°F10.9°C 15% 3.5 mph W5.6 kmh W 5.8 mph9.3 kmh 29.59 in1002.0 mb - 0.00 in0.0 mm 0.00 in0.0 mm
11:40 AM 108.7°F42.6°C 50.9°F10.5°C 15% 3.5 mph W5.6 kmh W 4.6 mph7.4 kmh 29.60 in1002.4 mb - 0.00 in0.0 mm 0.00 in0.0 mm
11:30 AM 108.1°F42.3°C 52.2°F11.2°C 16% 2.3 mph SW3.7 kmh SW 3.5 mph5.6 kmh 29.60 in1002.4 mb - 0.00 in0.0 mm 0.00 in0.0 mm
11:20 AM 107.9°F42.2°C 55.3°F12.9°C 18% 2.3 mph NW3.7 kmh NW 2.3 mph3.7 kmh 29.60 in1002.4 mb - 0.00 in0.0 mm 0.00 in0.0 mm
11:10 AM 107.5°F41.9°C 53.4°F11.9°C 17% 2.3 mph SW3.7 kmh SW 3.5 mph5.6 kmh 29.60 in1002.4 mb - 0.00 in0.0 mm 0.00 in0.0 mm
11:00 AM 106.8°F41.6°C 55.9°F13.3°C 19% 2.3 mph W3.7 kmh W 8.1 mph13.0 kmh 29.60 in1002.4 mb - 0.00 in0.0 mm 0.00 in0.0 mm
10:50 AM 105.9°F41.1°C 56.6°F13.7°C 20% 3.5 mph WSW5.6 kmh WSW 3.5 mph5.6 kmh 29.60 in1002.4 mb - 0.00 in0.0 mm 0.00 in0.0 mm
10:40 AM 105.4°F40.8°C 58.8°F14.9°C 22% 3.5 mph SW5.6 kmh SW 4.6 mph7.4 kmh 29.60 in1002.4 mb - 0.00 in0.0 mm 0.00 in0.0 mm
10:30 AM 104.6°F40.3°C 59.4°F15.2°C 23% 2.3 mph N3.7 kmh N 3.5 mph5.6 kmh 29.60 in1002.4 mb - 0.00 in0.0 mm 0.00 in0.0 mm
10:20 AM 104.0°F40.0°C 58.9°F14.9°C 23% 1.2 mph SW1.9 kmh SW 4.6 mph7.4 kmh 29.60 in1002.4 mb - 0.00 in0.0 mm 0.00 in0.0 mm
10:10 AM 103.4°F39.7°C 58.4°F14.7°C 23% 1.2 mph NW1.9 kmh NW 3.5 mph5.6 kmh 29.60 in1002.4 mb - 0.00 in0.0 mm 0.00 in0.0 mm
10:00 AM 103.2°F39.6°C 58.2°F14.6°C 23% 3.5 mph W5.6 kmh W 6.9 mph11.1 kmh 29.60 in1002.4 mb - 0.00 in0.0 mm 0.00 in0.0 mm
09:50 AM 103.1°F39.5°C 59.3°F15.2°C 24% 1.2 mph WSW1.9 kmh WSW 3.5 mph5.6 kmh 29.60 in1002.4 mb - 0.00 in0.0 mm 0.00 in0.0 mm
09:40 AM 102.2°F39.0°C 58.6°F14.8°C 24% Calm Calm 1.2 mph1.9 kmh 29.60 in1002.4 mb - 0.00 in0.0 mm 0.00 in0.0 mm
09:30 AM 101.8°F38.8°C 59.4°F15.2°C 25% 1.2 mph SW1.9 kmh SW 4.6 mph7.4 kmh 29.60 in1002.4 mb - 0.00 in0.0 mm 0.00 in0.0 mm
09:20 AM 100.6°F38.1°C 59.5°F15.3°C 26% 2.3 mph SW3.7 kmh SW 4.6 mph7.4 kmh 29.60 in1002.4 mb - 0.00 in0.0 mm 0.00 in0.0 mm
09:10 AM 99.9°F37.7°C 58.9°F14.9°C 26% 1.2 mph W1.9 kmh W 1.2 mph1.9 kmh 29.61 in1002.7 mb - 0.00 in0.0 mm 0.00 in0.0 mm
09:00 AM 99.4°F37.4°C 58.4°F14.7°C 26% 1.2 mph W1.9 kmh W 2.3 mph3.7 kmh 29.61 in1002.7 mb - 0.00 in0.0 mm 0.00 in0.0 mm
08:50 AM 98.6°F37.0°C 58.8°F14.9°C 27% Calm Calm 1.2 mph1.9 kmh 29.61 in1002.7 mb - 0.00 in0.0 mm 0.00 in0.0 mm
08:40 AM 98.1°F36.7°C 58.4°F14.7°C 27% 2.3 mph SW3.7 kmh SW 3.5 mph5.6 kmh 29.60 in1002.4 mb - 0.00 in0.0 mm 0.00 in0.0 mm
08:30 AM 97.5°F36.4°C 58.9°F14.9°C 28% Calm Calm 2.3 mph3.7 kmh 29.60 in1002.4 mb - 0.00 in0.0 mm 0.00 in0.0 mm
08:20 AM 96.6°F35.9°C 59.2°F15.1°C 29% Calm Calm 2.3 mph3.7 kmh 29.60 in1002.4 mb - 0.00 in0.0 mm 0.00 in0.0 mm
08:10 AM 95.9°F35.5°C 58.5°F14.7°C 29% 1.2 mph SE1.9 kmh SE 2.3 mph3.7 kmh 29.60 in1002.4 mb - 0.00 in0.0 mm 0.00 in0.0 mm
08:00 AM 95.3°F35.2°C 58.0°F14.4°C 29% Calm Calm 2.3 mph3.7 kmh 29.60 in1002.4 mb - 0.00 in0.0 mm 0.00 in0.0 mm
07:50 AM 94.2°F34.6°C 58.0°F14.4°C 30% 1.2 mph E1.9 kmh E 2.3 mph3.7 kmh 29.60 in1002.4 mb - 0.00 in0.0 mm 0.00 in0.0 mm
07:40 AM 92.8°F33.8°C 57.7°F14.3°C 31% 1.2 mph E1.9 kmh E 3.5 mph5.6 kmh 29.60 in1002.4 mb - 0.00 in0.0 mm 0.00 in0.0 mm
07:30 AM 91.1°F32.8°C 58.8°F14.9°C 34% Calm Calm 1.2 mph1.9 kmh 29.60 in1002.4 mb - 0.00 in0.0 mm 0.00 in0.0 mm
07:20 AM 89.3°F31.8°C 57.2°F14.0°C 34% Calm Calm -- 29.60 in1002.4 mb - 0.00 in0.0 mm 0.00 in0.0 mm
07:10 AM 88.1°F31.2°C 56.2°F13.4°C 34% Calm Calm 1.2 mph1.9 kmh 29.59 in1002.0 mb - 0.00 in0.0 mm 0.00 in0.0 mm
07:00 AM 87.2°F30.7°C 55.4°F13.0°C 34% Calm Calm 1.2 mph1.9 kmh 29.59 in1002.0 mb - 0.00 in0.0 mm 0.00 in0.0 mm
06:50 AM 85.9°F29.9°C 55.8°F13.2°C 36% Calm Calm -- 29.59 in1002.0 mb - 0.00 in0.0 mm 0.00 in0.0 mm
06:40 AM 84.7°F29.3°C 54.8°F12.7°C 36% Calm Calm 1.2 mph1.9 kmh 29.59 in1002.0 mb - 0.00 in0.0 mm 0.00 in0.0 mm
06:30 AM 83.7°F28.7°C 56.1°F13.4°C 39% Calm Calm -- 29.59 in1002.0 mb - 0.00 in0.0 mm 0.00 in0.0 mm
06:20 AM 83.1°F28.4°C 54.9°F12.7°C 38% Calm Calm -- 29.58 in1001.7 mb - 0.00 in0.0 mm 0.00 in0.0 mm
06:10 AM 82.6°F28.1°C 53.7°F12.1°C 37% Calm Calm 1.2 mph1.9 kmh 29.59 in1002.0 mb - 0.00 in0.0 mm 0.00 in0.0 mm
06:00 AM 82.5°F28.1°C 52.9°F11.6°C 36% Calm Calm -- 29.58 in1001.7 mb - 0.00 in0.0 mm 0.00 in0.0 mm
05:50 AM 82.6°F28.1°C 51.4°F10.8°C 34% Calm Calm -- 29.58 in1001.7 mb - 0.00 in0.0 mm 0.00 in0.0 mm
05:40 AM 82.9°F28.3°C 50.8°F10.4°C 33% Calm Calm -- 29.58 in1001.7 mb - 0.00 in0.0 mm 0.00 in0.0 mm
05:30 AM 83.2°F28.4°C 51.1°F10.6°C 33% Calm Calm -- 29.57 in1001.4 mb - 0.00 in0.0 mm 0.00 in0.0 mm
05:20 AM 83.3°F28.5°C 50.4°F10.2°C 32% Calm Calm -- 29.57 in1001.4 mb - 0.00 in0.0 mm 0.00 in0.0 mm
05:10 AM 83.8°F28.8°C 49.1°F9.5°C 30% Calm Calm -- 29.57 in1001.4 mb - 0.00 in0.0 mm 0.00 in0.0 mm
05:00 AM 84.3°F29.1°C 48.6°F9.2°C 29% Calm Calm 1.2 mph1.9 kmh 29.56 in1001.0 mb - 0.00 in0.0 mm 0.00 in0.0 mm
04:50 AM 84.7°F29.3°C 48.9°F9.4°C 29% Calm Calm 1.2 mph1.9 kmh 29.56 in1001.0 mb - 0.00 in0.0 mm 0.00 in0.0 mm
04:40 AM 85.0°F29.4°C 49.2°F9.6°C 29% Calm Calm -- 29.56 in1001.0 mb - 0.00 in0.0 mm 0.00 in0.0 mm
04:30 AM 85.6°F29.8°C 47.8°F8.8°C 27% Calm Calm 1.2 mph1.9 kmh 29.56 in1001.0 mb - 0.00 in0.0 mm 0.00 in0.0 mm
04:20 AM 86.3°F30.2°C 48.4°F9.1°C 27% Calm Calm -- 29.55 in1000.7 mb - 0.00 in0.0 mm 0.00 in0.0 mm
04:10 AM 86.8°F30.4°C 47.8°F8.8°C 26% Calm Calm 1.2 mph1.9 kmh 29.55 in1000.7 mb - 0.00 in0.0 mm 0.00 in0.0 mm
04:00 AM 87.2°F30.7°C 49.1°F9.5°C 27% Calm Calm -- 29.55 in1000.7 mb - 0.00 in0.0 mm 0.00 in0.0 mm
03:50 AM 87.7°F30.9°C 48.6°F9.2°C 26% Calm Calm -- 29.55 in1000.7 mb - 0.00 in0.0 mm 0.00 in0.0 mm
03:40 AM 88.1°F31.2°C 47.8°F8.8°C 25% Calm Calm -- 29.55 in1000.7 mb - 0.00 in0.0 mm 0.00 in0.0 mm
03:30 AM 88.5°F31.4°C 48.2°F9.0°C 25% Calm Calm -- 29.55 in1000.7 mb - 0.00 in0.0 mm 0.00 in0.0 mm
03:20 AM 89.1°F31.7°C 47.6°F8.7°C 24% Calm Calm 1.2 mph1.9 kmh 29.54 in1000.3 mb - 0.00 in0.0 mm 0.00 in0.0 mm
03:10 AM 89.3°F31.8°C 47.8°F8.8°C 24% Calm Calm -- 29.54 in1000.3 mb - 0.00 in0.0 mm 0.00 in0.0 mm
03:00 AM 89.5°F31.9°C 49.0°F9.4°C 25% Calm Calm 3.5 mph5.6 kmh 29.53 in1000.0 mb - 0.00 in0.0 mm 0.00 in0.0 mm
02:50 AM 90.1°F32.3°C 48.4°F9.1°C 24% Calm Calm -- 29.53 in1000.0 mb - 0.00 in0.0 mm 0.00 in0.0 mm
02:40 AM 90.4°F32.4°C 47.6°F8.7°C 23% Calm Calm 1.2 mph1.9 kmh 29.53 in1000.0 mb - 0.00 in0.0 mm 0.00 in0.0 mm
02:30 AM 90.4°F32.4°C 47.6°F8.7°C 23% 1.2 mph NNE1.9 kmh NNE 3.5 mph5.6 kmh 29.54 in1000.3 mb - 0.00 in0.0 mm 0.00 in0.0 mm
02:20 AM 90.6°F32.6°C 47.7°F8.7°C 23% 1.2 mph N1.9 kmh N 3.5 mph5.6 kmh 29.53 in1000.0 mb - 0.00 in0.0 mm 0.00 in0.0 mm
02:10 AM 91.8°F33.2°C 48.7°F9.3°C 23% 2.3 mph NE3.7 kmh NE 2.3 mph3.7 kmh 29.53 in1000.0 mb - 0.00 in0.0 mm 0.00 in0.0 mm
02:00 AM 92.6°F33.7°C 47.0°F8.3°C 21% Calm Calm -- 29.53 in1000.0 mb - 0.00 in0.0 mm 0.00 in0.0 mm
01:50 AM 92.8°F33.8°C 47.1°F8.4°C 21% Calm Calm -- 29.53 in1000.0 mb - 0.00 in0.0 mm 0.00 in0.0 mm
01:40 AM 92.9°F33.8°C 47.2°F8.4°C 21% Calm Calm 2.3 mph3.7 kmh 29.53 in1000.0 mb - 0.00 in0.0 mm 0.00 in0.0 mm
01:30 AM 93.2°F34.0°C 46.2°F7.9°C 20% Calm Calm -- 29.53 in1000.0 mb - 0.00 in0.0 mm 0.00 in0.0 mm
01:20 AM 93.6°F34.2°C 47.8°F8.8°C 21% 1.2 mph SSE1.9 kmh SSE 2.3 mph3.7 kmh 29.54 in1000.3 mb - 0.00 in0.0 mm 0.00 in0.0 mm
01:10 AM 94.1°F34.5°C 46.9°F8.3°C 20% 1.2 mph WSW1.9 kmh WSW 2.3 mph3.7 kmh 29.54 in1000.3 mb - 0.00 in0.0 mm 0.00 in0.0 mm
01:00 AM 94.3°F34.6°C 47.1°F8.4°C 20% Calm Calm 1.2 mph1.9 kmh 29.54 in1000.3 mb - 0.00 in0.0 mm 0.00 in0.0 mm
12:50 AM 94.3°F34.6°C 47.1°F8.4°C 20% Calm Calm 1.2 mph1.9 kmh 29.54 in1000.3 mb - 0.00 in0.0 mm 0.00 in0.0 mm
12:40 AM 94.4°F34.7°C 45.8°F7.7°C 19% Calm Calm 1.2 mph1.9 kmh 29.53 in1000.0 mb - 0.00 in0.0 mm 0.00 in0.0 mm
12:30 AM 94.4°F34.7°C 45.8°F7.7°C 19% Calm Calm 1.2 mph1.9 kmh 29.53 in1000.0 mb - 0.00 in0.0 mm 0.00 in0.0 mm
12:20 AM 94.4°F34.7°C 45.8°F7.7°C 19% Calm Calm 2.3 mph3.7 kmh 29.53 in1000.0 mb - 0.00 in0.0 mm 0.00 in0.0 mm
12:10 AM 94.4°F34.7°C 44.4°F6.9°C 18% 1.2 mph NW1.9 kmh NW 2.3 mph3.7 kmh 29.53 in1000.0 mb - 0.00 in0.0 mm 0.00 in0.0 mm
12:00 AM 94.4°F34.7°C 44.4°F6.9°C 18% 1.2 mph NNW1.9 kmh NNW 1.2 mph1.9 kmh 29.53 in1000.0 mb - 0.00 in0.0 mm 0.00 in0.0 mm